createdAt,value
2023-03-17T00:00:59.314Z,-1.16
2023-03-17T00:06:01.958Z,-1.17
2023-03-17T00:11:10.542Z,-1.15
2023-03-17T00:16:28.789Z,-1.17
2023-03-17T00:21:34.126Z,-1.23
2023-03-17T00:26:36.179Z,-1.31
2023-03-17T00:31:39.591Z,-1.44
2023-03-17T00:36:43.034Z,-1.57
2023-03-17T00:46:51.781Z,-1.84
2023-03-17T00:51:56.549Z,-1.96
2023-03-17T00:56:58.554Z,-2.01
2023-03-17T01:02:00.464Z,-2.00
2023-03-17T01:07:02.399Z,-1.96
2023-03-17T01:12:04.364Z,-1.96
2023-03-17T01:17:13.939Z,-1.96
2023-03-17T01:22:15.640Z,-2.00
2023-03-17T01:27:19.301Z,-2.00
2023-03-17T01:32:22.277Z,-1.94
2023-03-17T01:37:23.903Z,-1.88
2023-03-17T01:42:25.809Z,-1.89
2023-03-17T01:47:31.977Z,-1.92
2023-03-17T01:52:38.381Z,-1.96
2023-03-17T01:57:50.740Z,-1.99
2023-03-17T02:02:56.687Z,-1.90
2023-03-17T02:07:59.933Z,-1.82
2023-03-17T02:13:05.735Z,-1.80
2023-03-17T02:18:09.696Z,-1.79
2023-03-17T02:23:11.847Z,-1.76
2023-03-17T02:28:18.793Z,-1.72
2023-03-17T02:33:20.930Z,-1.66
2023-03-17T02:38:22.687Z,-1.61
2023-03-17T02:43:26.450Z,-1.63
2023-03-17T02:48:32.088Z,-1.63
2023-03-17T02:53:34.041Z,-1.60
2023-03-17T02:58:35.798Z,-1.61
2023-03-17T03:03:38.937Z,-1.65
2023-03-17T03:08:40.803Z,-1.72
2023-03-17T03:13:42.666Z,-1.78
2023-03-17T03:18:44.347Z,-1.84
2023-03-17T03:23:46.329Z,-1.92
2023-03-17T03:28:48.077Z,-1.98
2023-03-17T03:33:49.812Z,-2.01
2023-03-17T03:38:51.826Z,-2.03
2023-03-17T03:43:53.491Z,-2.04
2023-03-17T03:48:55.772Z,-2.07
2023-03-17T03:53:57.397Z,-2.10
2023-03-17T03:59:00.010Z,-2.09
2023-03-17T04:04:02.110Z,-2.08
2023-03-17T04:09:04.043Z,-2.08
2023-03-17T04:14:06.445Z,-2.07
2023-03-17T04:19:09.229Z,-2.04
2023-03-17T04:24:11.093Z,-2.03
2023-03-17T04:29:15.638Z,-2.12
2023-03-17T04:34:18.729Z,-2.22
2023-03-17T04:39:20.482Z,-2.25
2023-03-17T04:44:22.245Z,-2.26
2023-03-17T04:49:24.161Z,-2.28
2023-03-17T04:54:25.864Z,-2.30
2023-03-17T04:59:27.558Z,-2.28
2023-03-17T05:04:32.054Z,-2.24
2023-03-17T05:09:34.081Z,-2.19
2023-03-17T05:14:36.583Z,-2.09
2023-03-17T05:19:38.236Z,-1.98
2023-03-17T05:24:40.008Z,-1.83
2023-03-17T05:29:42.378Z,-1.48
2023-03-17T05:34:45.118Z,-0.87
2023-03-17T05:39:46.945Z,-0.04
2023-03-17T05:44:49.001Z,1.01
2023-03-17T05:49:50.777Z,1.46
2023-03-17T05:54:53.462Z,1.87
2023-03-17T05:59:55.104Z,2.57
2023-03-17T06:04:56.767Z,3.82
2023-03-17T06:09:58.678Z,5.08
2023-03-17T06:15:00.567Z,6.07
2023-03-17T06:20:03.891Z,7.06
2023-03-17T06:25:06.446Z,7.50
2023-03-17T06:30:11.562Z,7.63
2023-03-17T06:35:13.342Z,8.16
2023-03-17T06:40:16.224Z,8.71
2023-03-17T06:45:18.230Z,9.34
2023-03-17T06:50:20.288Z,9.97
2023-03-17T06:55:22.503Z,10.81
2023-03-17T07:00:24.354Z,11.61
2023-03-17T07:05:26.887Z,12.29
2023-03-17T07:10:28.556Z,12.77
2023-03-17T07:15:34.838Z,13.22
2023-03-17T07:20:36.945Z,13.51
2023-03-17T07:25:39.206Z,13.71
2023-03-17T07:30:43.785Z,14.06
2023-03-17T07:35:45.652Z,14.48
2023-03-17T07:40:48.964Z,14.78
2023-03-17T07:45:51.308Z,15.31
2023-03-17T07:50:53.033Z,15.41
2023-03-17T07:55:54.752Z,15.40
2023-03-17T08:00:57.784Z,15.46
2023-03-17T08:06:00.655Z,15.22
2023-03-17T08:11:03.907Z,15.26
2023-03-17T08:16:06.539Z,15.32
2023-03-17T08:21:08.298Z,15.84
2023-03-17T08:26:10.607Z,16.46
2023-03-17T08:31:17.166Z,16.83
2023-03-17T08:36:20.826Z,17.00
2023-03-17T08:41:24.057Z,17.21
2023-03-17T08:46:28.936Z,17.40
2023-03-17T08:51:32.892Z,17.43
2023-03-17T08:56:35.025Z,17.33
2023-03-17T09:01:37.845Z,17.48
2023-03-17T09:06:44.031Z,17.13
2023-03-17T09:11:50.827Z,16.40
2023-03-17T09:16:52.734Z,15.90
2023-03-17T09:21:54.573Z,15.42
2023-03-17T09:26:59.833Z,14.97
2023-03-17T09:32:02.313Z,14.59
2023-03-17T09:37:04.053Z,14.48
2023-03-17T09:42:30.304Z,14.15
2023-03-17T09:47:47.880Z,13.31
2023-03-17T09:52:51.550Z,12.58
2023-03-17T09:57:56.718Z,12.22
2023-03-17T10:02:59.336Z,11.95
2023-03-17T10:08:30.665Z,11.78
2023-03-17T10:13:46.083Z,11.76
2023-03-17T10:19:23.598Z,11.88
2023-03-17T10:24:29.739Z,11.99
2023-03-17T10:29:32.496Z,12.11
2023-03-17T10:34:37.733Z,12.28
2023-03-17T10:39:49.297Z,12.50
2023-03-17T10:44:56.963Z,12.59
2023-03-17T10:50:16.945Z,12.55
2023-03-17T10:55:22.712Z,12.60
2023-03-17T11:00:29.654Z,12.49
2023-03-17T11:05:32.159Z,12.30
2023-03-17T11:10:38.490Z,12.20
2023-03-17T11:15:48.413Z,12.22
2023-03-17T11:21:08.116Z,12.15
2023-03-17T11:26:31.257Z,12.21
2023-03-17T11:31:44.881Z,12.33
2023-03-17T11:37:24.740Z,12.44
2023-03-17T11:42:45.784Z,12.48
2023-03-17T11:48:15.258Z,12.42
2023-03-17T11:53:22.697Z,12.39
2023-03-17T11:58:32.083Z,12.27
2023-03-17T12:04:09.325Z,12.23
2023-03-17T12:09:33.182Z,12.10
2023-03-17T12:15:02.400Z,12.12
2023-03-17T12:20:18.427Z,12.14
2023-03-17T12:25:35.618Z,12.13
2023-03-17T12:30:54.296Z,12.06
2023-03-17T12:35:58.394Z,11.85
2023-03-17T12:41:22.596Z,11.69
2023-03-17T12:46:30.615Z,11.61
2023-03-17T12:52:04.324Z,11.48
2023-03-17T12:57:20.267Z,11.34
2023-03-17T13:02:27.984Z,11.25
2023-03-17T13:07:37.918Z,11.24
2023-03-17T13:12:39.554Z,11.35
2023-03-17T13:17:41.526Z,11.40
2023-03-17T13:23:13.597Z,11.48
2023-03-17T13:28:15.469Z,11.56
2023-03-17T13:33:23.731Z,11.56
2023-03-17T13:38:34.792Z,11.59
2023-03-17T13:44:22.924Z,11.64
2023-03-17T13:49:30.024Z,11.70
2023-03-17T13:54:35.465Z,11.67
2023-03-17T13:59:40.190Z,11.72
2023-03-17T14:04:52.693Z,11.75
2023-03-17T14:10:04.128Z,11.75
2023-03-17T14:15:17.308Z,11.74
2023-03-17T14:20:20.920Z,11.71
2023-03-17T14:25:26.389Z,11.66
2023-03-17T14:30:30.718Z,11.62
2023-03-17T14:35:45.370Z,11.53
2023-03-17T14:40:48.739Z,11.47
2023-03-17T14:45:53.373Z,11.40
2023-03-17T14:51:04.864Z,11.35
2023-03-17T14:56:07.292Z,11.25
2023-03-17T15:01:17.133Z,11.17
2023-03-17T15:06:30.439Z,11.11
2023-03-17T15:11:38.875Z,11.08
2023-03-17T15:16:46.934Z,11.04
2023-03-17T15:21:49.120Z,11.00
2023-03-17T15:26:50.996Z,10.99
2023-03-17T15:31:52.782Z,10.95
2023-03-17T15:36:55.552Z,10.89
2023-03-17T15:41:57.644Z,10.83
2023-03-17T15:47:00.131Z,10.79
2023-03-17T15:52:01.887Z,10.72
2023-03-17T15:57:03.582Z,10.64
2023-03-17T16:02:23.911Z,10.56
2023-03-17T16:07:26.020Z,10.46
2023-03-17T16:12:27.810Z,10.39
2023-03-17T16:17:32.234Z,10.27
2023-03-17T16:22:40.446Z,10.13
2023-03-17T16:27:42.084Z,9.98
2023-03-17T16:32:43.896Z,9.82
2023-03-17T16:37:46.300Z,9.66
2023-03-17T16:42:48.668Z,9.49
2023-03-17T16:47:50.606Z,9.34
2023-03-17T16:52:52.768Z,9.23
2023-03-17T16:57:56.252Z,9.08
2023-03-17T17:02:58.871Z,8.94
2023-03-17T17:08:00.774Z,8.76
2023-03-17T17:13:07.074Z,8.55
2023-03-17T17:18:17.671Z,8.31
2023-03-17T17:23:22.049Z,8.08
2023-03-17T17:28:24.676Z,7.85
2023-03-17T17:33:27.104Z,7.61
2023-03-17T17:38:30.123Z,7.39
2023-03-17T17:43:32.121Z,7.20
2023-03-17T17:48:33.804Z,7.00
2023-03-17T17:53:35.834Z,6.82
2023-03-17T17:58:37.465Z,6.68
2023-03-17T18:03:41.620Z,6.60
2023-03-17T18:08:43.665Z,6.49
2023-03-17T18:13:45.403Z,6.36
2023-03-17T18:18:47.270Z,6.29
2023-03-17T18:23:49.962Z,6.19
2023-03-17T18:28:52.675Z,6.16
2023-03-17T18:33:59.126Z,6.13
2023-03-17T18:39:00.861Z,6.10
2023-03-17T18:44:02.844Z,6.03
2023-03-17T18:49:05.748Z,5.93
2023-03-17T18:54:08.348Z,5.89
2023-03-17T18:59:11.256Z,5.83
2023-03-17T19:04:12.927Z,5.76
2023-03-17T19:09:14.707Z,5.72
2023-03-17T19:14:16.454Z,5.65
2023-03-17T19:19:18.370Z,5.54
2023-03-17T19:24:20.570Z,5.44
2023-03-17T19:29:22.278Z,5.37
2023-03-17T19:34:25.355Z,5.26
2023-03-17T19:39:27.755Z,5.09
2023-03-17T19:44:29.318Z,4.92
2023-03-17T19:49:32.355Z,4.73
2023-03-17T19:54:34.668Z,4.54
2023-03-17T19:59:36.563Z,4.35
2023-03-17T20:04:40.507Z,4.18
2023-03-17T20:09:45.528Z,4.03
2023-03-17T20:14:47.481Z,3.86
2023-03-17T20:19:49.225Z,3.69
2023-03-17T20:24:52.726Z,3.55
2023-03-17T20:29:54.563Z,3.40
2023-03-17T20:34:56.990Z,3.28
2023-03-17T20:40:01.119Z,3.15
2023-03-17T20:45:03.665Z,3.04
2023-03-17T20:50:06.349Z,2.92
2023-03-17T20:55:13.754Z,2.79
2023-03-17T21:00:21.010Z,2.62
2023-03-17T21:05:26.035Z,2.43
2023-03-17T21:10:27.780Z,2.19
2023-03-17T21:15:29.535Z,1.97
2023-03-17T21:20:32.186Z,1.80
2023-03-17T21:25:36.107Z,1.67
2023-03-17T21:30:37.819Z,1.56
2023-03-17T21:35:39.622Z,1.47
2023-03-17T21:40:43.010Z,1.38
2023-03-17T21:45:45.064Z,1.29
2023-03-17T21:50:48.937Z,1.19
2023-03-17T21:55:50.575Z,1.08
2023-03-17T22:00:52.448Z,0.95
2023-03-17T22:05:54.623Z,0.86
2023-03-17T22:11:01.252Z,0.78
2023-03-17T22:16:04.473Z,0.70
2023-03-17T22:21:08.155Z,0.61
2023-03-17T22:26:17.291Z,0.53
2023-03-17T22:31:25.135Z,0.47
2023-03-17T22:36:28.235Z,0.42
2023-03-17T22:41:34.597Z,0.38
2023-03-17T22:46:38.013Z,0.35
2023-03-17T22:51:43.880Z,0.33
2023-03-17T22:56:45.791Z,0.31
2023-03-17T23:01:47.518Z,0.29
2023-03-17T23:06:49.164Z,0.28
2023-03-17T23:11:51.122Z,0.26
2023-03-17T23:16:53.074Z,0.27
2023-03-17T23:21:54.968Z,0.35
2023-03-17T23:26:57.205Z,0.51
2023-03-17T23:32:00.330Z,0.67
2023-03-17T23:37:02.906Z,0.78
2023-03-17T23:42:04.662Z,0.85
2023-03-17T23:47:06.517Z,0.87
2023-03-17T23:52:08.948Z,0.87
2023-03-17T23:57:10.815Z,0.87
